createdAt,value
2022-10-29T00:04:04.910Z,22.83
2022-10-29T00:08:57.289Z,18.90
2022-10-29T00:13:55.045Z,18.17
2022-10-29T00:18:47.842Z,18.33
2022-10-29T00:23:40.540Z,20.27
2022-10-29T00:28:36.127Z,18.63
2022-10-29T00:33:28.333Z,18.80
2022-10-29T00:38:20.499Z,20.23
2022-10-29T00:43:16.611Z,16.93
2022-10-29T00:48:08.975Z,24.67
2022-10-29T00:53:02.708Z,18.67
2022-10-29T00:57:56.468Z,21.57
2022-10-29T01:02:49.693Z,20.07
2022-10-29T01:07:42.658Z,18.87
2022-10-29T01:13:02.923Z,21.53
2022-10-29T01:18:24.827Z,20.33
2022-10-29T01:23:51.163Z,23.13
2022-10-29T01:29:36.029Z,20.93
2022-10-29T01:34:57.227Z,19.67
2022-10-29T01:39:55.898Z,21.33
2022-10-29T01:45:08.081Z,21.37
2022-10-29T01:50:04.396Z,19.23
2022-10-29T01:54:56.598Z,19.63
2022-10-29T01:59:55.613Z,20.00
2022-10-29T02:05:05.269Z,18.77
2022-10-29T02:10:22.285Z,19.40
2022-10-29T02:15:23.421Z,20.10
2022-10-29T02:20:16.747Z,18.13
2022-10-29T02:25:11.112Z,33.77
2022-10-29T02:30:04.010Z,19.10
2022-10-29T02:40:16.514Z,17.47
2022-10-29T02:45:09.032Z,16.57
2022-10-29T02:50:01.257Z,19.27
2022-10-29T02:54:53.405Z,18.63
2022-10-29T03:04:54.519Z,21.40
2022-10-29T03:09:46.773Z,18.53
2022-10-29T03:14:38.929Z,19.63
2022-10-29T03:19:34.620Z,17.90
2022-10-29T03:24:26.892Z,18.57
2022-10-29T03:29:21.675Z,20.53
2022-10-29T03:34:13.918Z,19.40
2022-10-29T03:39:07.493Z,24.60
2022-10-29T03:43:59.645Z,20.60
2022-10-29T03:48:51.936Z,24.27
2022-10-29T03:53:44.378Z,24.47
2022-10-29T03:58:36.609Z,21.77
2022-10-29T04:03:37.322Z,23.03
2022-10-29T04:08:38.037Z,25.83
2022-10-29T04:13:36.376Z,27.40
2022-10-29T04:18:28.551Z,26.77
2022-10-29T04:28:43.841Z,24.90
2022-10-29T04:33:36.408Z,24.10
2022-10-29T04:38:28.807Z,26.10
2022-10-29T04:43:20.988Z,25.33
2022-10-29T04:48:13.194Z,25.87
2022-10-29T04:53:07.297Z,26.17
2022-10-29T04:57:59.553Z,25.87
2022-10-29T05:02:53.717Z,31.63
2022-10-29T05:07:46.749Z,29.57
2022-10-29T05:12:39.096Z,30.27
2022-10-29T05:17:38.867Z,27.93
2022-10-29T05:22:35.961Z,24.53
2022-10-29T05:27:28.237Z,31.43
2022-10-29T05:32:23.218Z,28.70
2022-10-29T05:37:15.579Z,35.40
2022-10-29T05:42:08.309Z,24.17
2022-10-29T05:47:00.693Z,22.40
2022-10-29T05:51:53.292Z,25.97
2022-10-29T05:56:45.534Z,26.87
2022-10-29T06:07:36.076Z,24.90
2022-10-29T06:12:34.987Z,24.80
2022-10-29T06:17:27.673Z,23.93
2022-10-29T06:22:19.958Z,24.77
2022-10-29T06:27:14.608Z,22.37
2022-10-29T06:32:06.867Z,21.10
2022-10-29T06:37:00.234Z,25.47
2022-10-29T06:41:55.026Z,25.23
2022-10-29T06:46:47.244Z,21.93
2022-10-29T06:51:39.507Z,21.33
2022-10-29T06:56:34.952Z,20.07
2022-10-29T07:01:35.052Z,18.27
2022-10-29T07:06:35.563Z,21.73
2022-10-29T07:11:37.918Z,22.17
2022-10-29T07:16:35.052Z,24.17
2022-10-29T07:21:27.254Z,17.73
2022-10-29T07:26:19.515Z,19.90
2022-10-29T07:31:14.897Z,23.27
2022-10-29T07:36:09.961Z,19.57
2022-10-29T07:41:02.252Z,20.53
2022-10-29T07:45:56.895Z,18.00
2022-10-29T07:50:52.422Z,19.23
2022-10-29T07:55:44.758Z,18.00
2022-10-29T08:00:41.777Z,22.23
2022-10-29T08:05:42.572Z,17.77
2022-10-29T08:10:38.894Z,17.73
2022-10-29T08:15:41.955Z,20.67
2022-10-29T08:20:37.084Z,19.20
2022-10-29T08:25:37.196Z,18.00
2022-10-29T08:30:37.881Z,19.53
2022-10-29T08:35:34.362Z,19.77
2022-10-29T08:40:49.466Z,16.93
2022-10-29T08:45:55.658Z,16.13
2022-10-29T08:51:17.965Z,16.77
2022-10-29T08:56:20.807Z,14.50
2022-10-29T09:01:18.151Z,14.87
2022-10-29T09:06:21.465Z,14.27
2022-10-29T09:11:50.819Z,14.53
2022-10-29T09:17:04.845Z,14.83
2022-10-29T09:22:08.916Z,14.33
2022-10-29T09:27:10.566Z,13.97
2022-10-29T09:32:19.188Z,11.57
2022-10-29T09:37:19.643Z,13.43
2022-10-29T09:42:19.410Z,14.70
2022-10-29T09:47:50.669Z,10.17
2022-10-29T09:52:49.792Z,12.13
2022-10-29T09:57:51.127Z,13.80
2022-10-29T10:02:53.773Z,12.93
2022-10-29T10:08:08.065Z,13.73
2022-10-29T10:13:06.695Z,13.80
2022-10-29T10:18:05.152Z,10.17
2022-10-29T10:23:48.073Z,11.83
2022-10-29T10:28:44.488Z,13.10
2022-10-29T10:33:54.072Z,14.53
2022-10-29T10:38:50.208Z,14.13
2022-10-29T10:43:49.158Z,14.40
2022-10-29T10:49:03.529Z,13.33
2022-10-29T10:53:58.893Z,12.13
2022-10-29T10:59:22.983Z,14.13
2022-10-29T11:04:20.790Z,13.67
2022-10-29T11:09:34.009Z,16.43
2022-10-29T11:15:02.502Z,18.47
2022-10-29T11:20:18.927Z,14.10
2022-10-29T11:31:47.372Z,11.70
2022-10-29T11:36:53.585Z,18.60
2022-10-29T11:42:03.847Z,11.57
2022-10-29T11:47:08.701Z,12.10
2022-10-29T11:52:35.847Z,11.73
2022-10-29T11:57:56.713Z,11.97
2022-10-29T12:03:10.645Z,11.60
2022-10-29T12:08:45.035Z,12.43
2022-10-29T12:14:08.930Z,14.00
2022-10-29T12:19:19.465Z,17.13
2022-10-29T12:24:39.110Z,16.00
2022-10-29T12:29:54.884Z,16.03
2022-10-29T12:35:03.198Z,15.10
2022-10-29T12:40:04.845Z,15.33
2022-10-29T12:45:19.505Z,17.27
2022-10-29T12:50:58.977Z,20.20
2022-10-29T12:55:57.455Z,17.13
2022-10-29T13:00:50.037Z,26.50
2022-10-29T13:05:46.534Z,17.03
2022-10-29T13:10:38.759Z,19.53
2022-10-29T13:15:45.355Z,21.20
2022-10-29T13:20:48.733Z,19.37
2022-10-29T13:25:45.357Z,20.70
2022-10-29T13:30:43.258Z,67.93
2022-10-29T13:35:42.966Z,39.67
2022-10-29T13:40:45.345Z,19.13
2022-10-29T13:45:47.593Z,23.93
2022-10-29T13:50:40.863Z,21.10
2022-10-29T13:55:38.177Z,18.07
2022-10-29T14:00:40.359Z,26.90
2022-10-29T14:06:01.730Z,29.23
2022-10-29T14:11:13.730Z,52.67
2022-10-29T14:16:06.264Z,51.73
2022-10-29T14:21:03.559Z,23.53
2022-10-29T14:26:04.131Z,27.20
2022-10-29T14:31:12.130Z,27.30
2022-10-29T14:36:34.362Z,27.87
2022-10-29T14:41:38.580Z,19.27
2022-10-29T14:46:53.591Z,52.77
2022-10-29T14:52:05.506Z,20.83
2022-10-29T14:57:15.490Z,85.47
2022-10-29T15:07:37.647Z,220.67
2022-10-29T15:12:40.468Z,22.97
2022-10-29T15:17:38.432Z,40.20
2022-10-29T15:22:39.792Z,27.00
2022-10-29T15:27:38.063Z,20.13
2022-10-29T15:32:36.856Z,60.43
2022-10-29T15:37:47.967Z,26.33
2022-10-29T15:42:41.607Z,26.30
2022-10-29T15:47:39.838Z,23.40
2022-10-29T15:52:54.134Z,63.10
2022-10-29T15:58:09.114Z,29.27
2022-10-29T16:03:42.362Z,22.40
2022-10-29T16:08:55.503Z,20.80
2022-10-29T16:13:58.237Z,27.67
2022-10-29T16:18:56.659Z,42.10
2022-10-29T16:23:53.808Z,32.97
2022-10-29T16:28:46.812Z,26.63
2022-10-29T16:33:44.004Z,22.73
2022-10-29T16:38:42.874Z,30.40
2022-10-29T16:43:47.553Z,34.50
2022-10-29T16:48:45.630Z,30.67
2022-10-29T16:54:02.876Z,29.87
2022-10-29T16:59:09.056Z,31.03
2022-10-29T17:04:11.079Z,34.00
2022-10-29T17:09:11.562Z,29.90
2022-10-29T17:14:10.128Z,29.57
2022-10-29T17:19:13.121Z,27.63
2022-10-29T17:24:36.212Z,26.83
2022-10-29T17:29:36.682Z,29.73
2022-10-29T17:34:44.903Z,26.53
2022-10-29T17:39:44.728Z,30.87
2022-10-29T17:44:46.787Z,31.53
2022-10-29T17:49:59.853Z,30.93
2022-10-29T17:55:00.508Z,35.67
2022-10-29T18:00:07.820Z,36.67
2022-10-29T18:05:03.905Z,35.43
2022-10-29T18:10:08.123Z,33.20
2022-10-29T18:15:09.583Z,34.17
2022-10-29T18:20:06.389Z,31.23
2022-10-29T18:25:03.858Z,28.83
2022-10-29T18:30:01.573Z,30.63
2022-10-29T18:35:07.371Z,25.47
2022-10-29T18:40:00.658Z,31.57
2022-10-29T18:44:53.641Z,28.80
2022-10-29T18:49:46.374Z,33.10
2022-10-29T18:54:48.809Z,38.90
2022-10-29T18:59:50.196Z,143.07
2022-10-29T19:04:42.755Z,114.97
2022-10-29T19:09:47.010Z,83.73
2022-10-29T19:14:47.589Z,82.10
2022-10-29T19:19:43.551Z,182.93
2022-10-29T19:24:40.686Z,228.00
2022-10-29T19:29:46.273Z,279.70
2022-10-29T19:34:45.256Z,302.90
2022-10-29T19:40:03.471Z,70.07
2022-10-29T19:45:22.483Z,127.43
2022-10-29T19:50:48.355Z,103.43
2022-10-29T19:56:01.549Z,97.90
2022-10-29T20:01:11.015Z,60.43
2022-10-29T20:06:08.952Z,43.13
2022-10-29T20:11:34.192Z,44.80
2022-10-29T20:16:37.409Z,45.27
2022-10-29T20:21:47.244Z,47.20
2022-10-29T20:27:03.045Z,44.20
2022-10-29T20:32:00.584Z,63.97
2022-10-29T20:42:07.743Z,39.23
2022-10-29T20:47:03.294Z,41.70
2022-10-29T20:52:03.706Z,45.60
2022-10-29T20:57:11.113Z,41.30
2022-10-29T21:02:12.266Z,34.53
2022-10-29T21:07:23.055Z,36.00
2022-10-29T21:12:19.076Z,39.37
2022-10-29T21:17:20.024Z,39.93
2022-10-29T21:22:23.167Z,37.63
2022-10-29T21:27:18.214Z,39.07
2022-10-29T21:32:12.840Z,37.40
2022-10-29T21:37:11.095Z,60.97
2022-10-29T21:42:07.648Z,46.27
2022-10-29T21:47:04.560Z,39.93
2022-10-29T21:51:59.378Z,34.47
2022-10-29T21:56:54.293Z,32.97
2022-10-29T22:01:53.285Z,34.30
2022-10-29T22:06:45.592Z,50.20
2022-10-29T22:11:42.790Z,43.53
2022-10-29T22:16:35.119Z,48.70
2022-10-29T22:21:34.615Z,40.13
2022-10-29T22:26:32.967Z,61.47
2022-10-29T22:31:25.914Z,37.30
2022-10-29T22:36:22.264Z,35.70
2022-10-29T22:41:18.882Z,34.77
2022-10-29T22:46:13.255Z,57.43
2022-10-29T22:51:16.365Z,42.80
2022-10-29T22:56:12.909Z,41.93
2022-10-29T23:01:13.474Z,34.53
2022-10-29T23:06:08.055Z,41.33
2022-10-29T23:11:08.245Z,56.73
2022-10-29T23:16:03.295Z,49.10
2022-10-29T23:21:03.418Z,43.57
2022-10-29T23:26:02.377Z,46.80
2022-10-29T23:30:55.658Z,35.17
2022-10-29T23:35:47.952Z,39.50
2022-10-29T23:40:40.144Z,43.40
2022-10-29T23:45:35.118Z,36.60
2022-10-29T23:50:27.394Z,32.57
2022-10-29T23:55:20.407Z,33.13
